createdAt,value
2022-09-24T00:01:31.115Z,95503.84
2022-09-24T00:04:00.980Z,95502.91
2022-09-24T00:06:30.170Z,95497.13
2022-09-24T00:08:57.930Z,95493.44
2022-09-24T00:11:28.828Z,95492.97
2022-09-24T00:13:57.434Z,95498.31
2022-09-24T00:16:27.835Z,95487.19
2022-09-24T00:18:55.867Z,95493.34
2022-09-24T00:21:26.215Z,95490.00
2022-09-24T00:23:56.612Z,95496.47
2022-09-24T00:26:42.422Z,95492.06
2022-09-24T00:29:15.146Z,95479.59
2022-09-24T00:31:42.111Z,95477.13
2022-09-24T00:34:09.244Z,95475.97
2022-09-24T00:36:36.481Z,95479.06
2022-09-24T00:39:06.051Z,95478.72
2022-09-24T00:41:36.104Z,95472.09
2022-09-24T00:44:43.924Z,95477.91
2022-09-24T00:47:16.618Z,95478.25
2022-09-24T00:49:44.994Z,95482.94
2022-09-24T00:52:11.845Z,95494.25
2022-09-24T00:54:38.946Z,95484.41
2022-09-24T00:57:08.365Z,95486.81
2022-09-24T00:59:35.856Z,95492.25
2022-09-24T01:02:03.635Z,95471.06
2022-09-24T01:04:30.531Z,95461.16
2022-09-24T01:06:58.183Z,95469.88
2022-09-24T01:09:29.067Z,95455.34
2022-09-24T01:12:03.497Z,95450.31
2022-09-24T01:14:57.741Z,95449.38
2022-09-24T01:17:45.758Z,95451.19
2022-09-24T01:20:26.091Z,95446.84
2022-09-24T01:23:47.788Z,95446.16
2022-09-24T01:26:48.187Z,95436.31
2022-09-24T01:29:33.138Z,95441.81
2022-09-24T01:32:11.015Z,95441.47
2022-09-24T01:34:54.314Z,95436.44
2022-09-24T01:37:24.691Z,95434.91
2022-09-24T01:39:53.981Z,95425.13
2022-09-24T01:42:23.856Z,95427.00
2022-09-24T01:44:51.859Z,95421.41
2022-09-24T01:47:30.938Z,95421.47
2022-09-24T01:50:01.418Z,95416.44
2022-09-24T01:52:36.219Z,95405.34
2022-09-24T01:55:05.987Z,95392.53
2022-09-24T01:57:40.288Z,95397.53
2022-09-24T02:00:14.211Z,95387.06
2022-09-24T02:02:50.311Z,95381.59
2022-09-24T02:06:01.346Z,95384.41
2022-09-24T02:08:39.187Z,95389.91
2022-09-24T02:11:17.606Z,95374.22
2022-09-24T02:13:56.889Z,95381.78
2022-09-24T02:16:50.918Z,95380.69
2022-09-24T02:19:23.502Z,95374.88
2022-09-24T02:21:51.564Z,95367.38
2022-09-24T02:24:33.683Z,95375.00
2022-09-24T02:27:00.960Z,95373.78
2022-09-24T02:29:27.801Z,95362.38
2022-09-24T02:31:56.562Z,95361.03
2022-09-24T02:34:36.969Z,95366.75
2022-09-24T02:37:15.540Z,95363.25
2022-09-24T02:39:42.850Z,95360.09
2022-09-24T02:42:12.486Z,95360.44
2022-09-24T02:44:39.024Z,95352.94
2022-09-24T02:47:07.377Z,95351.28
2022-09-24T02:49:34.039Z,95359.34
2022-09-24T02:52:02.600Z,95351.44
2022-09-24T02:54:29.251Z,95357.19
2022-09-24T02:56:57.362Z,95356.19
2022-09-24T02:59:24.061Z,95352.97
2022-09-24T03:01:51.584Z,95355.38
2022-09-24T03:04:18.377Z,95362.03
2022-09-24T03:06:45.129Z,95362.22
2022-09-24T03:09:13.223Z,95358.09
2022-09-24T03:11:45.329Z,95356.16
2022-09-24T03:14:12.747Z,95354.53
2022-09-24T03:16:39.638Z,95353.41
2022-09-24T03:19:07.373Z,95353.41
2022-09-24T03:21:34.259Z,95351.44
2022-09-24T03:24:01.314Z,95356.94
2022-09-24T03:26:27.954Z,95346.75
2022-09-24T03:28:54.681Z,95337.59
2022-09-24T03:31:24.476Z,95336.31
2022-09-24T03:33:52.255Z,95341.28
2022-09-24T03:36:23.657Z,95341.41
2022-09-24T03:38:54.701Z,95335.66
2022-09-24T03:41:21.489Z,95335.91
2022-09-24T03:43:48.431Z,95337.13
2022-09-24T03:46:18.055Z,95330.28
2022-09-24T03:48:45.440Z,95319.53
2022-09-24T03:51:15.394Z,95315.66
2022-09-24T03:53:42.988Z,95320.66
2022-09-24T03:56:11.985Z,95321.00
2022-09-24T03:58:39.527Z,95322.47
2022-09-24T04:01:07.804Z,95325.94
2022-09-24T04:03:34.847Z,95320.25
2022-09-24T04:06:01.850Z,95328.34
2022-09-24T04:08:28.667Z,95314.78
2022-09-24T04:10:55.776Z,95319.31
2022-09-24T04:13:22.701Z,95317.97
2022-09-24T04:15:50.769Z,95313.16
2022-09-24T04:18:18.826Z,95306.09
2022-09-24T04:20:45.750Z,95304.94
2022-09-24T04:23:13.147Z,95308.38
2022-09-24T04:25:42.677Z,95303.66
2022-09-24T04:28:10.582Z,95315.13
2022-09-24T04:30:38.425Z,95305.16
2022-09-24T04:33:06.014Z,95306.94
2022-09-24T04:35:38.535Z,95307.69
2022-09-24T04:38:06.723Z,95306.66
2022-09-24T04:40:33.549Z,95298.50
2022-09-24T04:43:00.203Z,95296.72
2022-09-24T04:45:27.265Z,95307.88
2022-09-24T04:47:58.121Z,95309.03
2022-09-24T04:50:27.027Z,95301.53
2022-09-24T04:52:54.658Z,95298.31
2022-09-24T04:55:22.679Z,95299.25
2022-09-24T04:57:50.738Z,95293.75
2022-09-24T05:00:21.629Z,95299.78
2022-09-24T05:02:55.717Z,95306.69
2022-09-24T05:05:22.770Z,95306.88
2022-09-24T05:07:49.957Z,95309.88
2022-09-24T05:10:16.982Z,95316.50
2022-09-24T05:12:43.622Z,95309.41
2022-09-24T05:15:10.663Z,95314.69
2022-09-24T05:17:40.482Z,95309.66
2022-09-24T05:20:11.407Z,95321.78
2022-09-24T05:22:45.822Z,95315.22
2022-09-24T05:25:15.596Z,95314.09
2022-09-24T05:27:50.055Z,95318.78
2022-09-24T05:30:18.801Z,95315.69
2022-09-24T05:32:46.637Z,95318.78
2022-09-24T05:35:13.826Z,95319.59
2022-09-24T05:37:40.856Z,95321.78
2022-09-24T05:40:26.673Z,95314.81
2022-09-24T05:43:04.414Z,95310.81
2022-09-24T05:45:31.917Z,95315.84
2022-09-24T05:48:00.428Z,95319.59
2022-09-24T05:50:27.963Z,95320.25
2022-09-24T05:52:55.080Z,95330.03
2022-09-24T05:55:22.805Z,95322.25
2022-09-24T05:57:49.625Z,95330.97
2022-09-24T06:00:18.502Z,95323.19
2022-09-24T06:02:45.448Z,95326.16
2022-09-24T06:05:12.880Z,95328.88
2022-09-24T06:07:39.834Z,95323.69
2022-09-24T06:10:11.122Z,95327.34
2022-09-24T06:12:38.642Z,95334.44
2022-09-24T06:15:06.671Z,95326.00
2022-09-24T06:17:33.484Z,95320.00
2022-09-24T06:20:00.436Z,95320.06
2022-09-24T06:22:29.226Z,95319.25
2022-09-24T06:24:57.032Z,95319.38
2022-09-24T06:27:23.948Z,95330.03
2022-09-24T06:29:51.155Z,95323.88
2022-09-24T06:32:20.098Z,95319.56
2022-09-24T06:34:49.251Z,95321.13
2022-09-24T06:37:16.197Z,95317.56
2022-09-24T06:39:43.321Z,95318.44
2022-09-24T06:42:10.243Z,95323.31
2022-09-24T06:44:36.901Z,95339.38
2022-09-24T06:47:03.639Z,95332.28
2022-09-24T06:49:34.080Z,95331.72
2022-09-24T06:52:01.369Z,95324.91
2022-09-24T06:54:32.242Z,95322.72
2022-09-24T06:56:59.940Z,95334.13
2022-09-24T06:59:26.839Z,95328.50
2022-09-24T07:01:54.140Z,95324.06
2022-09-24T07:04:21.214Z,95324.44
2022-09-24T07:07:23.547Z,95320.59
2022-09-24T07:09:50.568Z,95323.13
2022-09-24T07:12:18.887Z,95320.53
2022-09-24T07:14:45.678Z,95322.75
2022-09-24T07:17:12.901Z,95319.56
2022-09-24T07:19:39.745Z,95323.72
2022-09-24T07:22:06.910Z,95330.69
2022-09-24T07:24:33.780Z,95334.75
2022-09-24T07:27:00.661Z,95334.31
2022-09-24T07:29:29.275Z,95328.78
2022-09-24T07:31:57.298Z,95336.81
2022-09-24T07:34:24.323Z,95339.31
2022-09-24T07:36:51.100Z,95334.16
2022-09-24T07:39:23.772Z,95342.53
2022-09-24T07:41:52.447Z,95332.94
2022-09-24T07:44:23.239Z,95343.47
2022-09-24T07:46:50.689Z,95351.25
2022-09-24T07:49:18.157Z,95336.72
2022-09-24T07:51:49.515Z,95337.06
2022-09-24T07:54:17.721Z,95346.00
2022-09-24T07:56:44.977Z,95347.94
2022-09-24T07:59:12.004Z,95339.81
2022-09-24T08:01:40.126Z,95349.44
2022-09-24T08:04:07.980Z,95351.59
2022-09-24T08:06:39.542Z,95339.22
2022-09-24T08:09:08.234Z,95344.28
2022-09-24T08:11:34.858Z,95347.13
2022-09-24T08:14:01.601Z,95344.63
2022-09-24T08:16:29.454Z,95352.75
2022-09-24T08:18:56.062Z,95343.44
2022-09-24T08:24:10.010Z,95347.50
2022-09-24T08:26:41.859Z,95351.69
2022-09-24T08:29:14.816Z,95350.06
2022-09-24T08:31:42.683Z,95351.22
2022-09-24T08:34:09.502Z,95359.66
2022-09-24T08:36:42.085Z,95359.59
2022-09-24T08:39:17.476Z,95362.03
2022-09-24T08:41:56.179Z,95358.81
2022-09-24T08:44:56.860Z,95355.06
2022-09-24T08:47:30.732Z,95359.38
2022-09-24T08:50:20.864Z,95351.47
2022-09-24T08:53:19.320Z,95351.75
2022-09-24T08:55:52.779Z,95344.63
2022-09-24T08:58:44.894Z,95361.06
2022-09-24T09:01:17.756Z,95358.81
2022-09-24T09:04:07.478Z,95352.38
2022-09-24T09:06:42.276Z,95354.41
2022-09-24T09:09:26.350Z,95359.00
2022-09-24T09:12:05.458Z,95364.31
2022-09-24T09:14:55.916Z,95353.47
2022-09-24T09:17:47.293Z,95353.44
2022-09-24T09:20:31.468Z,95356.78
2022-09-24T09:23:04.103Z,95361.13
2022-09-24T09:25:37.376Z,95372.19
2022-09-24T09:28:17.648Z,95367.38
2022-09-24T09:30:52.198Z,95364.16
2022-09-24T09:33:32.467Z,95364.25
2022-09-24T09:36:38.535Z,95368.16
2022-09-24T09:39:37.541Z,95363.91
2022-09-24T09:42:32.303Z,95370.00
2022-09-24T09:45:27.858Z,95369.38
2022-09-24T09:47:57.270Z,95373.69
2022-09-24T09:50:26.997Z,95366.19
2022-09-24T09:52:55.961Z,95374.81
2022-09-24T09:55:37.050Z,95367.41
2022-09-24T09:58:23.098Z,95372.50
2022-09-24T10:00:51.287Z,95372.31
2022-09-24T10:03:24.715Z,95367.25
2022-09-24T10:05:57.018Z,95375.69
2022-09-24T10:08:25.854Z,95373.22
2022-09-24T10:10:55.669Z,95369.97
2022-09-24T10:13:23.988Z,95357.22
2022-09-24T10:15:55.279Z,95361.78
2022-09-24T10:18:48.582Z,95359.78
2022-09-24T19:21:28.682Z,95406.50
2022-09-24T19:23:57.453Z,95409.25
2022-09-24T19:26:32.127Z,95408.34
2022-09-24T19:28:59.474Z,95405.13
2022-09-24T19:31:36.782Z,95406.72
2022-09-24T19:34:05.032Z,95413.97
2022-09-24T19:36:37.434Z,95410.75
2022-09-24T19:39:18.478Z,95417.84
2022-09-24T19:41:45.332Z,95415.44
2022-09-24T19:44:12.800Z,95410.63
2022-09-24T19:46:40.027Z,95410.84
2022-09-24T19:49:07.114Z,95415.09
2022-09-24T19:51:36.398Z,95417.72
2022-09-24T19:54:06.967Z,95407.06
2022-09-24T19:56:34.649Z,95415.66
2022-09-24T19:59:04.418Z,95401.56
2022-09-24T20:01:57.181Z,95404.31
2022-09-24T20:04:24.829Z,95410.16
2022-09-24T20:06:51.401Z,95408.53
2022-09-24T20:09:18.557Z,95412.91
2022-09-24T20:11:45.665Z,95410.72
2022-09-24T20:14:13.335Z,95408.78
2022-09-24T20:16:42.951Z,95412.00
2022-09-24T20:19:12.401Z,95411.19
2022-09-24T20:21:44.322Z,95418.63
2022-09-24T20:24:14.966Z,95417.59
2022-09-24T20:27:00.090Z,95411.53
2022-09-24T20:29:26.936Z,95414.97
2022-09-24T20:31:55.793Z,95422.06
2022-09-24T20:34:23.930Z,95425.03
2022-09-24T20:36:51.679Z,95427.13
2022-09-24T20:39:19.496Z,95433.63
2022-09-24T20:41:46.638Z,95436.50
2022-09-24T20:44:13.533Z,95437.31
2022-09-24T20:46:42.719Z,95435.78
2022-09-24T20:49:23.221Z,95430.28
2022-09-24T20:51:57.821Z,95430.97
2022-09-24T20:54:26.276Z,95424.00
2022-09-24T20:56:53.039Z,95424.69
2022-09-24T20:59:19.925Z,95423.06
2022-09-24T21:01:48.212Z,95419.50
2022-09-24T21:04:17.665Z,95426.03
2022-09-24T21:06:44.415Z,95421.19
2022-09-24T21:09:11.117Z,95423.63
2022-09-24T21:11:38.374Z,95420.25
2022-09-24T21:14:05.617Z,95428.63
2022-09-24T21:16:34.694Z,95425.75
2022-09-24T21:19:04.954Z,95431.72
2022-09-24T21:21:35.277Z,95430.44
2022-09-24T21:24:02.390Z,95429.53
2022-09-24T21:26:32.667Z,95431.34
2022-09-24T21:29:03.699Z,95437.97
2022-09-24T21:31:32.901Z,95439.47
2022-09-24T21:33:59.766Z,95438.66
2022-09-24T21:36:29.756Z,95435.56
2022-09-24T21:38:59.317Z,95444.63
2022-09-24T21:41:29.478Z,95437.50
2022-09-24T21:43:56.297Z,95441.41
2022-09-24T21:46:26.094Z,95439.97
2022-09-24T21:48:54.089Z,95437.69
2022-09-24T21:51:22.124Z,95454.97
2022-09-24T21:53:55.053Z,95448.03
2022-09-24T21:56:22.279Z,95445.63
2022-09-24T21:58:50.767Z,95447.75
2022-09-24T22:01:26.092Z,95441.44
2022-09-24T22:03:58.602Z,95440.97
2022-09-24T22:06:28.973Z,95448.09
2022-09-24T22:09:02.084Z,95446.13
2022-09-24T22:11:29.024Z,95445.00
2022-09-24T22:14:01.445Z,95448.09
2022-09-24T22:16:30.207Z,95447.28
2022-09-24T22:18:56.831Z,95446.34
2022-09-24T22:21:23.879Z,95449.09
2022-09-24T22:23:50.552Z,95451.16
2022-09-24T22:26:18.804Z,95445.00
2022-09-24T22:28:46.308Z,95440.66
2022-09-24T22:31:16.463Z,95448.97
2022-09-24T22:34:02.329Z,95445.69
2022-09-24T22:36:31.737Z,95438.38
2022-09-24T22:39:00.396Z,95446.81
2022-09-24T22:41:29.281Z,95450.16
2022-09-24T22:43:57.435Z,95448.41
2022-09-24T22:46:27.668Z,95450.16
2022-09-24T22:48:59.226Z,95443.41
2022-09-24T22:51:28.673Z,95442.25
2022-09-24T22:53:58.467Z,95451.63
2022-09-24T22:56:26.825Z,95442.06
2022-09-24T22:58:56.604Z,95443.19
2022-09-24T23:01:32.398Z,95435.63
2022-09-24T23:04:03.489Z,95439.63
2022-09-24T23:06:31.989Z,95441.66
2022-09-24T23:08:58.895Z,95444.00
2022-09-24T23:11:31.455Z,95435.00
2022-09-24T23:14:00.396Z,95437.56
2022-09-24T23:16:33.679Z,95436.75
2022-09-24T23:19:03.625Z,95433.19
2022-09-24T23:21:31.684Z,95437.44
2022-09-24T23:24:12.908Z,95429.44
2022-09-24T23:26:39.666Z,95433.84
2022-09-24T23:29:07.078Z,95437.69
2022-09-24T23:31:41.591Z,95437.03
2022-09-24T23:34:08.315Z,95434.63
2022-09-24T23:36:36.237Z,95436.09
2022-09-24T23:39:04.262Z,95431.25
2022-09-24T23:41:32.191Z,95446.28
2022-09-24T23:43:59.961Z,95440.19
2022-09-24T23:46:27.682Z,95435.16
2022-09-24T23:48:57.514Z,95441.78
2022-09-24T23:51:24.469Z,95444.41
2022-09-24T23:53:51.477Z,95437.97
2022-09-24T23:56:19.127Z,95445.75
2022-09-24T23:58:46.175Z,95440.84
